Time;durP1;ratioP1;P1;durP2;ratioP2;P2;SDS_P1;SDS_P2;PMS_P1;PMS_P2;Temp;Humidity;BMP_temperature;BMP_pressure;BME280_temperature;BME280_humidity;BME280_pressure;Samples;Min_cycle;Max_cycle;Signal;HPM_P1;HPM_P2
2021/10/27 00:00:16;;;;;;;1999.90;999.90;;;;;;;12.59;71.70;101727.66;15710399;28;20087;-63
2021/10/27 00:07:51;;;;;;;1999.90;999.90;;;;;;;12.66;71.49;101741.19;15659912;28;20049;-64
2021/10/27 00:15:25;;;;;;;1999.90;999.90;;;;;;;12.89;71.08;101751.16;15689647;28;20156;-63
2021/10/27 00:22:58;;;;;;;1999.90;999.90;;;;;;;12.76;71.09;101745.69;15744328;28;20161;-62
2021/10/27 00:30:33;;;;;;;1999.90;999.90;;;;;;;12.62;71.91;101746.63;15743972;28;20048;-64
2021/10/27 00:38:05;;;;;;;1999.90;999.90;;;;;;;12.81;71.40;101751.13;15728942;28;20063;-64
2021/10/27 00:45:39;;;;;;;1999.90;999.90;;;;;;;12.85;71.34;101752.97;15742316;28;20052;-63
2021/10/27 00:53:12;;;;;;;1999.90;999.90;;;;;;;12.49;72.20;101741.09;15700159;28;20486;-63
2021/10/27 01:00:46;;;;;;;1999.90;999.90;;;;;;;12.70;71.53;101737.41;15680199;28;20038;-63
2021/10/27 01:08:19;;;;;;;1999.90;999.90;;;;;;;12.65;71.73;101731.97;15678889;28;20144;-64
2021/10/27 01:15:53;;;;;;;1999.90;999.90;;;;;;;12.88;71.12;101732.72;15676653;28;20160;-63
2021/10/27 01:23:27;;;;;;;1999.90;999.90;;;;;;;12.75;71.52;101725.25;15682180;28;20072;-62
2021/10/27 01:31:00;;;;;;;1999.90;999.90;;;;;;;12.76;71.51;101720.47;15685430;28;20116;-63
2021/10/27 01:38:34;;;;;;;1999.90;999.90;;;;;;;12.68;71.72;101717.31;15685031;28;20133;-63
2021/10/27 01:46:06;;;;;;;1999.90;999.90;;;;;;;12.49;72.29;101722.31;15682515;28;20067;-63
2021/10/27 01:53:40;;;;;;;1999.90;999.90;;;;;;;12.56;72.06;101717.09;15730341;28;20127;-62
2021/10/27 02:01:13;;;;;;;1999.90;999.90;;;;;;;12.47;72.23;101705.03;15744872;28;20070;-62
2021/10/27 02:08:47;;;;;;;1999.90;999.90;;;;;;;12.48;72.33;101715.06;15726946;28;20171;-63
2021/10/27 02:16:20;;;;;;;1999.90;999.90;;;;;;;12.60;71.93;101720.88;15742190;28;20044;-63
2021/10/27 02:23:54;;;;;;;1999.90;999.90;;;;;;;12.70;72.12;101725.38;15743020;28;20051;-63
2021/10/27 02:31:26;;;;;;;1999.90;999.90;;;;;;;12.60;72.17;101720.88;15742473;28;20120;-63
2021/10/27 02:39:01;;;;;;;1999.90;999.90;;;;;;;12.61;72.36;101708.56;15742651;28;20045;-63
2021/10/27 02:46:34;;;;;;;1999.90;999.90;;;;;;;12.82;71.81;101707.97;15742240;28;20444;-61
2021/10/27 02:54:08;;;;;;;1999.90;999.90;;;;;;;12.73;71.96;101726.72;15690884;28;20064;-63
2021/10/27 03:01:40;;;;;;;1999.90;999.90;;;;;;;12.77;71.99;101733.31;15678595;28;20052;-62
2021/10/27 03:09:15;;;;;;;1999.90;999.90;;;;;;;12.81;71.89;101739.91;15677538;28;20053;-64
2021/10/27 03:16:48;;;;;;;1999.90;999.90;;;;;;;12.76;71.57;101732.50;15677505;28;20476;-63
2021/10/27 03:24:22;;;;;;;1999.90;999.90;;;;;;;12.77;71.86;101727.72;15677664;28;20448;-63
2021/10/27 03:31:54;;;;;;;1999.90;999.90;;;;;;;12.51;72.34;101722.03;15678845;28;20104;-63
2021/10/27 03:39:29;;;;;;;1999.90;999.90;;;;;;;12.60;72.15;101739.66;15687299;28;20033;-63
2021/10/27 03:47:02;;;;;;;1999.90;999.90;;;;;;;12.49;72.27;101736.31;15680445;28;20110;-62
2021/10/27 03:54:37;;;;;;;1999.90;999.90;;;;;;;12.62;71.93;101735.41;15733929;28;20044;-63
2021/10/27 04:02:10;;;;;;;1999.90;999.90;;;;;;;12.43;72.38;101740.41;15740937;28;20059;-63
2021/10/27 04:09:44;;;;;;;1999.90;999.90;;;;;;;12.49;72.38;101735.50;15738692;28;20066;-61
2021/10/27 04:17:18;;;;;;;1999.90;999.90;;;;;;;12.56;72.39;101745.09;15720950;22;20063;-61
2021/10/27 04:24:52;;;;;;;1999.90;999.90;;;;;;;12.59;72.44;101741.63;15634469;28;20561;-59
2021/10/27 04:32:24;;;;;;;1999.90;999.90;;;;;;;12.62;71.98;101745.78;15615073;28;20041;-58
2021/10/27 04:39:58;;;;;;;1999.90;999.90;;;;;;;12.80;71.70;101760.69;15614060;28;20049;-58
2021/10/27 04:47:31;;;;;;;1999.90;999.90;;;;;;;12.71;72.02;101764.28;15613938;28;20050;-59
2021/10/27 04:55:06;;;;;;;1999.90;999.90;;;;;;;12.90;71.31;101761.22;15658976;28;20579;-59
2021/10/27 05:02:41;;;;;;;1999.90;999.90;;;;;;;12.94;71.01;101761.41;15647232;28;20046;-59
2021/10/27 05:10:15;;;;;;;1999.90;999.90;;;;;;;12.90;71.09;101754.78;15625617;28;20704;-60
2021/10/27 05:17:48;;;;;;;1999.90;999.90;;;;;;;13.08;70.50;101747.28;15607712;28;20054;-59
2021/10/27 05:25:22;;;;;;;1999.90;999.90;;;;;;;13.01;70.72;101742.13;15620808;28;20046;-60
2021/10/27 05:32:56;;;;;;;1999.90;999.90;;;;;;;12.96;70.74;101739.50;15606888;28;20186;-60
2021/10/27 05:40:30;;;;;;;1999.90;999.90;;;;;;;13.07;70.42;101754.03;15623165;28;20087;-60
2021/10/27 05:48:04;;;;;;;1999.90;999.90;;;;;;;12.98;70.55;101762.41;15625362;28;20046;-62
2021/10/27 05:55:39;;;;;;;1999.90;999.90;;;;;;;13.03;70.62;101772.66;15686084;28;20049;-59
2021/10/27 06:03:12;;;;;;;1999.90;999.90;;;;;;;12.88;70.79;101774.72;15617242;28;20045;-59
2021/10/27 06:10:46;;;;;;;1999.90;999.90;;;;;;;12.86;71.36;101773.41;15621618;28;20053;-58
2021/10/27 06:18:19;;;;;;;1999.90;999.90;;;;;;;12.88;71.23;101799.13;15622565;28;20064;-58
2021/10/27 06:25:54;;;;;;;1999.90;999.90;;;;;;;13.07;70.65;101808.09;15620321;28;20514;-57
2021/10/27 06:33:41;;;;;;;1999.90;999.90;;;;;;;12.97;70.77;101816.78;15621699;28;20050;-57
2021/10/27 06:49:06;;;;;;;1999.90;999.90;;;;;;;13.06;70.50;101819.66;15618825;28;20130;-60
2021/10/27 06:56:40;;;;;;;;;;;;;;;13.10;70.26;101812.22;15620113;28;20468;-58
2021/10/27 07:04:32;;;;;;;1999.90;999.90;;;;;;;13.26;69.97;101828.31;15619383;28;20020;-57
2021/10/27 07:19:59;;;;;;;1999.90;999.90;;;;;;;13.40;69.52;101830.19;15648854;28;20042;-59
2021/10/27 07:27:33;;;;;;;1999.90;999.90;;;;;;;13.50;69.21;101827.06;15617798;28;20046;-60
2021/10/27 07:35:14;;;;;;;1999.90;999.90;;;;;;;13.54;69.48;101831.69;15616655;28;20068;-61
2021/10/27 07:42:48;;;;;;;1999.90;999.90;;;;;;;13.66;69.01;101831.06;15617328;28;20061;-59
2021/10/27 07:50:23;;;;;;;1999.90;999.90;;;;;;;14.00;68.30;101847.13;15637122;28;20128;-57
2021/10/27 07:57:58;;;;;;;1999.90;999.90;;;;;;;14.09;68.13;101847.97;15677335;28;20181;-59
2021/10/27 08:05:32;;;;;;;1999.90;999.90;;;;;;;14.22;68.09;101853.75;15677231;28;20083;-59
2021/10/27 08:13:06;;;;;;;1999.90;999.90;;;;;;;14.37;67.59;101854.03;15677589;28;20049;-59
2021/10/27 08:20:39;;;;;;;1999.90;999.90;;;;;;;14.44;67.40;101847.94;15677753;28;20055;-59
2021/10/27 08:28:16;;;;;;;1999.90;999.90;;;;;;;14.33;67.82;101843.81;15677469;28;20112;-59
2021/10/27 08:35:49;;;;;;;1999.90;999.90;;;;;;;14.59;67.22;101839.03;15690677;28;20124;-57
2021/10/27 08:43:24;;;;;;;;;;;;;;;14.95;66.36;101838.59;15689831;28;20045;-61
2021/10/27 08:50:57;;;;;;;1999.90;999.90;;;;;;;14.99;66.46;101844.38;15664098;28;19928;-61
2021/10/27 08:58:36;;;;;;;1999.90;999.90;;;;;;;17.67;58.74;101855.34;15626543;28;20033;-59
2021/10/27 09:06:21;;;;;;;1999.90;999.90;;;;;;;18.43;57.10;101860.13;15627028;28;20096;-60
2021/10/27 09:38:06;;;;;;;1999.90;999.90;;;;;;;16.45;62.49;101896.16;15625408;28;20049;-62
2021/10/27 10:09:16;;;;;;;1999.90;999.90;;;;;;;16.17;63.46;101918.44;15685129;28;20052;-58
2021/10/27 10:16:53;;;;;;;1999.90;999.90;;;;;;;16.06;63.90;101925.63;15705099;22;20083;-61
2021/10/27 10:24:32;;;;;;;1999.90;999.90;;;;;;;15.95;65.59;101930.03;15759245;28;20062;-62
2021/10/27 10:32:32;;;;;;;1999.90;999.90;;;;;;;16.33;63.66;101934.72;15759407;28;20144;-63
2021/10/27 10:40:42;;;;;;;1999.90;999.90;;;;;;;16.29;63.89;101931.78;15758647;28;20181;-61
2021/10/27 11:43:56;;;;;;;1999.90;999.90;;;;;;;16.58;65.03;101907.50;15758541;28;20087;-63
2021/10/27 11:51:30;;;;;;;1999.90;999.90;;;;;;;16.55;64.56;101902.53;15732575;28;20037;-63
2021/10/27 11:59:03;;;;;;;1999.90;999.90;;;;;;;16.56;64.78;101902.19;15702053;28;20080;-61
2021/10/27 12:06:41;;;;;;;1999.90;999.90;;;;;;;16.61;64.58;101887.09;15693935;28;20048;-62
2021/10/27 12:14:17;;;;;;;1999.90;999.90;;;;;;;16.83;64.29;101883.09;15724519;28;20060;-61
2021/10/27 12:21:56;;;;;;;1999.90;999.90;;;;;;;16.86;64.40;101871.94;15700468;28;20045;-62
2021/10/27 12:29:30;;;;;;;1999.90;999.90;;;;;;;16.65;64.98;101863.50;15694486;28;20103;-62
2021/10/27 12:37:24;;;;;;;1999.90;999.90;;;;;;;16.67;65.29;101877.22;15723619;28;20236;-63
2021/10/27 12:44:56;;;;;;;1999.90;999.90;;;;;;;16.70;65.20;101865.31;15679648;28;20123;-61
2021/10/27 12:52:32;;;;;;;1999.90;999.90;;;;;;;16.77;65.12;101856.28;15715901;28;20078;-61
2021/10/27 13:00:13;;;;;;;1999.90;999.90;;;;;;;16.89;64.96;101859.16;15739869;28;20462;-61
2021/10/27 13:07:55;;;;;;;1999.90;999.90;;;;;;;16.88;65.21;101863.97;15739228;28;20520;-62
2021/10/27 13:15:52;;;;;;;1999.90;999.90;;;;;;;16.73;65.27;101867.44;15744410;28;20052;-63
2021/10/27 13:23:40;;;;;;;1999.90;999.90;;;;;;;16.77;65.45;101867.56;15750926;28;20104;-63
2021/10/27 13:31:15;;;;;;;1999.90;999.90;;;;;;;16.79;65.67;101870.88;15755681;28;20076;-61
2021/10/27 13:38:51;;;;;;;1999.90;999.90;;;;;;;16.96;65.38;101865.84;15754494;28;20053;-62
2021/10/27 13:46:41;;;;;;;1999.90;999.90;;;;;;;16.82;65.99;101867.34;15759582;28;20143;-62
2021/10/27 14:10:04;;;;;;;1999.90;999.90;;;;;;;16.43;67.17;101849.78;15732133;28;20041;-61
2021/10/27 15:20:21;;;;;;;1999.90;999.90;;;;;;;16.35;68.35;101836.59;15758573;28;20060;-62
2021/10/27 15:28:10;;;;;;;1999.90;999.90;;;;;;;16.32;68.29;101828.84;15756713;28;20075;-61
2021/10/27 15:35:57;;;;;;;1999.90;999.90;;;;;;;16.32;68.48;101832.50;15757143;28;20113;-62
2021/10/27 15:43:44;;;;;;;1999.90;999.90;;;;;;;16.56;67.84;101857.13;15757059;28;20048;-62
2021/10/27 15:51:19;;;;;;;1999.90;999.90;;;;;;;16.50;68.15;101852.06;15726282;28;20473;-63
2021/10/27 15:58:53;;;;;;;1999.90;999.90;;;;;;;16.40;68.47;101858.94;15695020;28;20091;-61
2021/10/27 16:06:27;;;;;;;1999.90;999.90;;;;;;;16.36;68.58;101855.16;15710050;28;20132;-62
2021/10/27 16:14:02;;;;;;;1999.90;999.90;;;;;;;16.44;68.51;101866.34;15691907;28;20045;-63
2021/10/27 16:21:36;;;;;;;1999.90;999.90;;;;;;;16.49;68.30;101881.41;15694358;22;20106;-61
2021/10/27 16:29:10;;;;;;;1999.90;999.90;;;;;;;16.27;69.20;101865.69;15681566;28;20060;-60
2021/10/27 16:36:43;;;;;;;1999.90;999.90;;;;;;;16.32;68.92;101868.28;15685101;28;20208;-61
2021/10/27 16:44:17;;;;;;;1999.90;999.90;;;;;;;16.27;69.27;101860.88;15684798;28;20039;-60
2021/10/27 16:51:49;;;;;;;1999.90;999.90;;;;;;;16.23;69.01;101871.16;15714939;28;20049;-61
2021/10/27 16:59:23;;;;;;;1999.90;999.90;;;;;;;16.10;69.75;101861.00;15733291;28;20132;-62
2021/10/27 17:06:57;;;;;;;1999.90;999.90;;;;;;;16.12;69.37;101867.94;15749535;28;20074;-62
2021/10/27 17:14:32;;;;;;;1999.90;999.90;;;;;;;16.10;69.70;101877.91;15755805;28;20052;-61
2021/10/27 17:22:07;;;;;;;1999.90;999.90;;;;;;;16.11;69.31;101877.56;15750702;28;20478;-60
2021/10/27 17:29:41;;;;;;;1999.90;999.90;;;;;;;16.07;69.51;101881.41;15749094;28;20139;-60
2021/10/27 17:37:14;;;;;;;1999.90;999.90;;;;;;;15.89;70.06;101886.31;15749030;28;20580;-62
2021/10/27 17:44:49;;;;;;;1999.90;999.90;;;;;;;15.95;69.60;101892.59;15748279;28;20041;-62
2021/10/27 17:52:29;;;;;;;1999.90;999.90;;;;;;;15.94;69.76;101886.13;15712289;28;20044;-61
2021/10/27 18:00:04;;;;;;;1999.90;999.90;;;;;;;16.05;69.06;101897.84;15685963;28;20136;-61
2021/10/27 18:07:40;;;;;;;1999.90;999.90;;;;;;;16.06;68.69;101896.66;15685022;28;20136;-62
2021/10/27 18:15:16;;;;;;;1999.90;999.90;;;;;;;16.09;68.34;101898.78;15677507;28;20041;-62
2021/10/27 18:23:04;;;;;;;1999.90;999.90;;;;;;;16.01;68.50;101888.41;15675512;28;20049;-60
2021/10/27 18:38:36;;;;;;;1999.90;999.90;;;;;;;16.01;68.19;101902.47;15682689;28;20107;-62
2021/10/27 18:46:11;;;;;;;1999.90;999.90;;;;;;;16.13;67.81;101905.38;15666013;28;20049;-62
2021/10/27 19:17:32;;;;;;;1999.90;999.90;;;;;;;15.95;68.07;101889.78;15678545;28;20052;-62
2021/10/27 19:25:09;;;;;;;1999.90;999.90;;;;;;;16.11;67.48;101900.09;15678292;28;20048;-61
2021/10/27 19:33:01;;;;;;;1999.90;999.90;;;;;;;16.10;66.91;101898.44;15684668;28;20060;-57
2021/10/27 20:12:31;;;;;;;1999.90;999.90;;;;;;;16.19;66.49;101906.00;15682897;28;20052;-62
2021/10/27 20:51:53;;;;;;;1999.90;999.90;;;;;;;16.06;66.34;101897.47;15708717;28;20048;-62
2021/10/27 20:59:33;;;;;;;1999.90;999.90;;;;;;;16.07;66.38;101907.56;15739764;28;20045;-61
2021/10/27 21:14:58;;;;;;;1999.90;999.90;;;;;;;15.65;67.61;101906.66;15717220;28;20049;-61
2021/10/27 21:22:32;;;;;;;;;;;;;;;15.71;67.26;101901.66;15719784;28;20126;-62
2021/10/27 21:30:20;;;;;;;1999.90;999.90;;;;;;;15.71;67.13;101907.28;15720827;28;20020;-62
2021/10/27 21:45:44;;;;;;;1999.90;999.90;;;;;;;15.69;67.20;101901.19;15750311;28;20048;-64
2021/10/27 21:53:18;;;;;;;1999.90;999.90;;;;;;;15.64;67.16;101895.75;15701818;28;20045;-60
2021/10/27 22:00:56;;;;;;;1999.90;999.90;;;;;;;15.42;67.56;101903.25;15701088;28;20137;-63
2021/10/27 22:08:31;;;;;;;1999.90;999.90;;;;;;;15.49;67.64;101900.75;15700691;28;20055;-62
2021/10/27 22:16:04;;;;;;;1999.90;999.90;;;;;;;15.23;68.33;101894.41;15683716;28;20559;-62
2021/10/27 22:23:38;;;;;;;1999.90;999.90;;;;;;;15.08;68.93;101892.13;15684734;28;20094;-60
2021/10/27 22:31:11;;;;;;;1999.90;999.90;;;;;;;15.33;68.07;101893.22;15697939;28;20072;-58
2021/10/27 22:38:45;;;;;;;1999.90;999.90;;;;;;;15.21;68.47;101891.91;15681746;28;20048;-60
2021/10/27 22:46:19;;;;;;;1999.90;999.90;;;;;;;15.11;68.57;101883.88;15682196;28;20049;-60
2021/10/27 22:53:53;;;;;;;;;;;;;;;14.99;68.89;101873.31;15730413;28;20106;-61
2021/10/27 23:01:29;;;;;;;1999.90;999.90;;;;;;;14.38;70.70;101871.72;15735432;28;19982;-60
2021/10/27 23:09:13;;;;;;;1999.90;999.90;;;;;;;14.49;69.79;101873.09;15680909;28;20053;-61
2021/10/27 23:40:33;;;;;;;1999.90;999.90;;;;;;;13.66;72.01;101867.53;15677409;28;20052;-59
2021/10/27 23:48:06;;;;;;;1999.90;999.90;;;;;;;13.57;71.46;101864.72;15686483;28;20071;-60
2021/10/27 23:55:45;;;;;;;1999.90;999.90;;;;;;;13.31;72.41;101857.34;15705118;28;20043;-60
